Time;durP1;ratioP1;P1;durP2;ratioP2;P2;SDS_P1;SDS_P2;PMS_P1;PMS_P2;Temp;Humidity;BMP_temperature;BMP_pressure;BME280_temperature;BME280_humidity;BME280_pressure;Samples;Min_cycle;Max_cycle;Signal;HPM_P1;HPM_P2
2021/12/22 00:00:58;;;;;;;;;51.00;42.75;;;;;0.54;72.10;102085.44;5038494;28;45467;-52
2021/12/22 00:03:25;;;;;;;;;42.75;31.50;;;;;0.35;71.54;102063.38;5038745;28;45228;-52
2021/12/22 00:05:51;;;;;;;;;42.50;28.50;;;;;0.56;72.08;102083.63;5038920;28;45312;-51
2021/12/22 00:08:18;;;;;;;;;47.75;42.50;;;;;0.64;71.16;102084.25;5038803;28;45585;-51
2021/12/22 00:10:45;;;;;;;;;53.75;40.50;;;;;0.65;71.64;102079.84;5038560;28;46339;-48
2021/12/22 00:13:11;;;;;;;;;53.50;38.00;;;;;0.71;71.50;102082.25;5038550;28;45372;-48
2021/12/22 00:15:36;;;;;;;;;47.50;41.50;;;;;0.71;71.21;102082.25;5038571;28;45369;-51
2021/12/22 00:18:03;;;;;;;;;50.00;39.50;;;;;0.74;71.32;102077.78;5038825;28;45496;-52
2021/12/22 00:20:29;;;;;;;;;57.75;38.00;;;;;0.75;71.22;102062.91;5038342;28;45949;-51
2021/12/22 00:22:54;;;;;;;;;52.25;42.00;;;;;0.79;71.04;102071.53;5038539;28;45309;-49
2021/12/22 00:25:24;;;;;;;;;43.25;36.25;;;;;0.80;71.33;102068.00;5020390;28;45834;-51
2021/12/22 00:27:50;;;;;;;;;46.25;32.50;;;;;0.83;71.36;102065.28;5038308;28;45350;-50
2021/12/22 00:30:16;;;;;;;;;44.50;33.75;;;;;0.83;71.13;102062.66;5038272;28;47153;-53
2021/12/22 00:32:49;;;;;;;;;60.25;43.25;;;;;0.85;71.11;102068.72;5038281;28;45402;-51
2021/12/22 00:35:14;;;;;;;;;58.00;41.75;;;;;0.84;71.10;102065.22;5038648;28;45413;-52
2021/12/22 00:37:40;;;;;;;;;49.75;39.50;;;;;0.84;70.59;102070.47;5038744;28;45246;-52
2021/12/22 00:40:06;;;;;;;;;50.25;39.25;;;;;0.88;71.46;102058.97;5038047;28;47003;-51
2021/12/22 00:42:31;;;;;;;;;60.00;45.00;;;;;0.91;71.10;102068.50;5038145;28;45370;-52
2021/12/22 00:44:57;;;;;;;;;59.25;41.25;;;;;0.88;70.47;102063.34;5038206;28;45369;-51
2021/12/22 00:47:26;;;;;;;;;55.00;43.50;;;;;0.95;70.88;102064.88;5038172;28;45502;-49
2021/12/22 00:49:51;;;;;;;;;47.75;36.00;;;;;0.98;71.06;102067.41;5037842;28;46012;-53
2021/12/22 00:52:17;;;;;;;;;43.25;32.50;;;;;0.64;70.82;102005.69;5036872;28;45419;-54
2021/12/22 00:54:42;;;;;;;;;45.50;28.50;;;;;1.06;69.88;102060.13;5038101;28;45761;-50
2021/12/22 00:57:09;;;;;;;;;54.50;42.25;;;;;1.05;70.88;102057.53;5020123;28;45452;-50
2021/12/22 00:59:37;;;;;;;;;48.25;31.25;;;;;1.06;69.85;102059.28;5037892;28;45299;-53
2021/12/22 01:02:06;;;;;;;;;40.25;30.75;;;;;1.12;70.81;102064.28;5037993;28;45363;-53
2021/12/22 01:04:31;;;;;;;;;43.00;34.25;;;;;1.12;70.23;102057.28;5038194;28;45368;-52
2021/12/22 01:06:57;;;;;;;;;54.25;42.75;;;;;1.08;70.82;102060.91;5038225;28;45345;-53
2021/12/22 01:09:23;;;;;;;;;32.00;23.50;;;;;1.03;68.92;102056.75;5038104;28;45984;-52
2021/12/22 01:11:50;;;;;;;;;46.00;35.50;;;;;1.04;71.17;102063.69;5020129;28;45326;-53
2021/12/22 01:14:15;;;;;;;;;47.25;34.25;;;;;1.02;70.41;102055.91;5038043;28;45398;-52
2021/12/22 01:16:47;;;;;;;;;65.50;44.25;;;;;1.04;70.71;102055.84;5037989;28;45348;-53
2021/12/22 01:19:17;;;;;;;;;55.75;38.50;;;;;0.98;70.46;102039.44;5037790;28;46245;-49
2021/12/22 01:21:48;;;;;;;;;50.75;38.25;;;;;1.10;70.17;102061.72;5037834;28;45275;-50
2021/12/22 01:24:31;;;;;;;;;43.25;36.75;;;;;1.13;70.13;102064.22;5037617;28;45454;-53
2021/12/22 01:27:04;;;;;;;;;67.50;44.00;;;;;1.13;70.77;102066.84;5037973;28;45472;-52
2021/12/22 01:29:32;;;;;;;;;39.50;32.00;;;;;1.16;70.09;102065.91;5037502;28;46200;-49
2021/12/22 01:32:01;;;;;;;;;45.25;37.25;;;;;1.11;70.67;102042.47;5037663;28;45450;-53
2021/12/22 01:34:28;;;;;;;;;42.25;38.00;;;;;1.23;70.15;102054.28;5037670;28;45235;-54
2021/12/22 01:36:53;;;;;;;;;41.00;33.50;;;;;1.18;70.61;102049.22;5037874;28;45377;-53
2021/12/22 01:39:19;;;;;;;;;51.50;36.00;;;;;1.16;70.13;102039.69;5037383;28;45695;-52
2021/12/22 01:41:44;;;;;;;;;58.25;39.75;;;;;1.12;70.12;102048.56;5037328;28;45148;-50
2021/12/22 01:44:10;;;;;;;;;45.75;33.25;;;;;1.12;69.86;102049.41;5037634;28;45220;-51
2021/12/22 01:49:11;;;;;;;;;48.50;38.50;;;;;1.08;71.09;102055.66;5037357;28;45364;-52
2021/12/22 01:51:40;;;;;;;;;47.75;34.00;;;;;1.08;70.68;102045.19;5037323;28;45460;-52
2021/12/22 01:54:23;;;;;;;;;43.25;32.00;;;;;1.16;70.15;102045.78;5037490;28;45200;-51
2021/12/22 01:56:51;;;;;;;;;46.75;37.25;;;;;1.22;70.70;102039.44;5037491;28;45572;-48
2021/12/22 01:59:16;;;;;;;;;32.00;27.75;;;;;1.21;69.72;102043.84;5037165;28;46039;-52
2021/12/22 02:01:42;;;;;;;;;49.50;36.25;;;;;1.10;70.17;102025.03;5036967;28;45298;-51
2021/12/22 02:04:10;;;;;;;;;35.50;28.00;;;;;1.12;69.24;102035.47;5037422;28;45202;-50
2021/12/22 02:06:41;;;;;;;;;57.25;40.50;;;;;1.17;69.93;102052.72;5037609;28;45460;-53
2021/12/22 02:09:08;;;;;;;;;47.75;30.25;;;;;1.09;69.38;102035.56;5037166;28;45204;-53
2021/12/22 02:11:34;;;;;;;;;42.25;36.50;;;;;1.16;69.93;102044.94;5036978;28;45436;-51
2021/12/22 02:14:03;;;;;;;;;50.00;39.00;;;;;1.16;70.41;102047.53;5037283;28;45232;-54
2021/12/22 02:16:32;;;;;;;;;52.50;37.75;;;;;1.05;69.88;102047.91;5037191;28;45523;-50
2021/12/22 02:19:00;;;;;;;;;35.00;23.25;;;;;1.05;70.31;102047.06;5037002;28;47076;-50
2021/12/22 02:21:33;;;;;;;;;40.25;32.50;;;;;1.05;69.76;102042.66;5037051;28;45455;-49
2021/12/22 02:23:59;;;;;;;;;48.50;32.25;;;;;1.05;69.81;102037.44;5037102;28;45250;-50
2021/12/22 02:26:35;;;;;;;;;48.00;37.00;;;;;0.96;70.17;102024.66;5036983;28;45447;-53
2021/12/22 02:29:05;;;;;;;;;41.75;36.50;;;;;1.05;70.86;102047.91;5036834;28;45251;-52
2021/12/22 02:31:38;;;;;;;;;29.75;21.25;;;;;1.05;70.16;102044.44;5036715;28;45363;-52
2021/12/22 02:34:03;;;;;;;;;38.50;26.50;;;;;1.02;70.19;102052.44;5036779;28;45489;-52
2021/12/22 02:36:35;;;;;;;;;64.00;42.25;;;;;0.96;70.59;102049.09;5037079;28;45266;-51
2021/12/22 02:39:02;;;;;;;;;59.00;42.00;;;;;0.80;71.16;102039.19;5036664;28;47138;-51
2021/12/22 02:41:30;;;;;;;;;36.50;26.00;;;;;0.82;70.95;102046.09;5036420;28;45341;-52
2021/12/22 02:43:57;;;;;;;;;49.75;37.50;;;;;0.75;71.95;102026.25;5019023;28;45321;-52
2021/12/22 02:46:29;;;;;;;;;53.25;37.75;;;;;0.77;72.09;102034.06;5036942;28;45440;-52
2021/12/22 02:48:54;;;;;;;;;26.75;26.75;;;;;0.72;71.50;102019.38;5036440;28;47202;-48
2021/12/22 02:51:21;;;;;;;;;42.50;30.00;;;;;0.87;70.10;102027.59;5036649;28;45415;-52
2021/12/22 02:54:01;;;;;;;;;52.75;41.00;;;;;0.89;70.83;102037.13;5036662;28;45469;-50
2021/12/22 02:56:52;;;;;;;;;32.75;27.50;;;;;0.91;70.77;102034.44;5036499;28;45696;-52
2021/12/22 03:05:12;;;;;;;;;48.50;31.75;;;;;0.81;70.63;102033.06;4897685;29;45485;-49
2021/12/22 03:07:38;;;;;;;;;42.75;27.75;;;;;0.85;70.05;102032.06;4897910;29;45505;-52
2021/12/22 03:10:13;;;;;;;;;52.00;37.00;;;;;0.88;70.51;102034.53;4897623;29;45531;-53
2021/12/22 03:12:40;;;;;;;;;49.75;32.75;;;;;0.91;70.92;102029.22;4897650;29;45465;-50
2021/12/22 03:15:07;;;;;;;;;47.00;33.50;;;;;0.94;70.60;102029.09;4899700;29;45450;-52
2021/12/22 03:17:33;;;;;;;;;44.50;34.00;;;;;0.87;71.15;102031.06;4917180;28;45456;-52
2021/12/22 03:19:59;;;;;;;;;59.00;41.00;;;;;0.96;70.47;102027.28;4919906;28;46233;-50
2021/12/22 03:22:24;;;;;;;;;43.75;32.00;;;;;0.99;70.20;102028.03;4919729;28;45394;-49
2021/12/22 03:24:52;;;;;;;;;37.75;33.00;;;;;0.94;70.87;102031.72;4920144;28;45383;-52
2021/12/22 03:27:19;;;;;;;;;49.25;39.75;;;;;0.95;71.03;102026.41;4919941;28;45444;-51
2021/12/22 03:29:45;;;;;;;;;51.00;34.50;;;;;0.93;70.29;102030.03;4919780;28;45388;-52
2021/12/22 03:32:11;;;;;;;;;43.50;38.00;;;;;0.67;71.18;102013.41;4919983;28;45481;-50
2021/12/22 03:34:37;;;;;;;;;48.75;33.50;;;;;0.85;70.96;102032.06;4919893;28;45361;-50
2021/12/22 03:37:04;;;;;;;;;27.25;24.75;;;;;0.81;71.06;102022.59;4966549;28;45406;-53
2021/12/22 03:39:30;;;;;;;;;41.75;29.50;;;;;0.78;70.56;102015.69;4977652;28;46078;-52
2021/12/22 03:41:56;;;;;;;;;34.75;25.50;;;;;0.84;70.14;102017.22;5005979;28;45316;-52
2021/12/22 03:44:21;;;;;;;;;42.25;37.25;;;;;0.86;71.19;102012.81;5039593;28;45521;-52
2021/12/22 03:46:47;;;;;;;;;39.00;25.00;;;;;0.85;70.05;102018.97;5039446;28;45359;-50
2021/12/22 03:49:14;;;;;;;;;41.50;30.00;;;;;0.85;70.60;102016.34;5039278;28;46062;-53
2021/12/22 03:51:40;;;;;;;;;46.25;27.75;;;;;0.80;70.78;102020.84;5038986;28;45332;-52
2021/12/22 03:54:07;;;;;;;;;57.00;36.25;;;;;0.81;70.55;102018.19;5039320;28;45323;-53
2021/12/22 03:56:33;;;;;;;;;40.75;28.50;;;;;0.86;70.08;102025.91;5039465;28;45314;-53
2021/12/22 03:58:59;;;;;;;;;37.50;32.00;;;;;0.82;70.80;102021.66;5038865;28;47232;-51
2021/12/22 04:01:24;;;;;;;;;56.00;35.50;;;;;0.81;70.95;102023.44;5038883;28;45388;-52
2021/12/22 04:03:54;;;;;;;;;46.50;38.75;;;;;0.77;71.06;102016.59;5039184;28;45218;-51
2021/12/22 04:06:20;;;;;;;;;47.25;32.50;;;;;0.68;71.12;102017.75;5039278;28;45458;-49
2021/12/22 04:08:45;;;;;;;;;49.25;33.00;;;;;0.66;71.15;102018.72;5038901;28;46007;-48
2021/12/22 04:11:10;;;;;;;;;39.75;31.00;;;;;0.68;70.62;102016.91;5038629;28;45319;-52
2021/12/22 04:13:36;;;;;;;;;60.25;43.50;;;;;0.66;71.50;102016.94;5038974;28;45352;-53
2021/12/22 04:16:01;;;;;;;;;51.25;40.50;;;;;0.68;71.29;102009.06;5038955;28;45606;-53
2021/12/22 04:18:27;;;;;;;;;39.50;32.50;;;;;0.67;71.14;101995.06;5038600;28;46100;-50
2021/12/22 04:20:52;;;;;;;;;40.75;33.75;;;;;0.75;71.36;102005.28;5021043;28;45324;-51
2021/12/22 04:23:17;;;;;;;;;44.75;32.50;;;;;0.79;71.48;101988.56;5038755;28;45731;-51
2021/12/22 04:25:43;;;;;;;;;35.00;27.75;;;;;0.81;70.13;101993.78;5038742;28;45416;-53
2021/12/22 04:28:10;;;;;;;;;48.75;37.50;;;;;0.78;71.73;101992.09;5038534;28;46089;-53
2021/12/22 04:30:45;;;;;;;;;38.75;33.75;;;;;0.82;71.05;102003.34;5038641;28;45500;-52
2021/12/22 04:33:11;;;;;;;;;48.00;39.50;;;;;0.85;70.83;102005.84;5038909;28;45682;-51
2021/12/22 04:35:36;;;;;;;;;33.00;26.50;;;;;0.81;70.75;102012.97;5038727;28;45345;-51
2021/12/22 04:38:03;;;;;;;;;43.00;24.50;;;;;0.81;70.54;102010.34;5038477;28;45363;-50
2021/12/22 04:40:28;;;;;;;;;34.25;24.25;;;;;0.83;70.24;102005.88;5038452;28;45312;-51
2021/12/22 04:42:54;;;;;;;;;35.00;25.00;;;;;0.83;70.27;102005.03;5038407;28;45490;-49
2021/12/22 04:45:19;;;;;;;;;34.25;26.50;;;;;0.84;70.73;102004.97;5038727;28;45358;-53
2021/12/22 04:47:47;;;;;;;;;31.00;21.75;;;;;0.86;70.02;102024.13;5038244;28;46546;-53
2021/12/22 04:50:17;;;;;;;;;45.25;34.50;;;;;0.88;70.30;102009.19;5038344;28;45329;-50
2021/12/22 04:55:17;;;;;;;;;38.00;29.00;;;;;0.88;69.55;102019.69;5038776;28;45378;-51
2021/12/22 04:57:43;;;;;;;;;51.00;39.75;;;;;0.77;69.75;102005.25;5037969;28;46009;-47
2021/12/22 05:00:10;;;;;;;;;45.75;38.50;;;;;0.82;70.83;102019.06;5038418;28;45349;-53
2021/12/22 05:02:36;;;;;;;;;46.50;32.75;;;;;0.86;70.87;102028.50;5038134;28;45281;-53
2021/12/22 05:05:03;;;;;;;;;39.25;33.50;;;;;0.86;70.53;102011.03;5038454;28;45507;-48
2021/12/22 05:07:29;;;;;;;;;64.25;45.00;;;;;0.84;71.34;102018.06;5038002;28;46420;-52
2021/12/22 05:09:54;;;;;;;;;61.00;45.00;;;;;0.78;70.83;102015.69;5037877;28;45208;-52
2021/12/22 05:12:20;;;;;;;;;43.50;27.75;;;;;0.65;70.68;102004.75;5038131;28;45661;-53
2021/12/22 05:14:49;;;;;;;;;50.50;36.25;;;;;0.73;70.58;102009.75;5038155;28;45343;-50
2021/12/22 05:17:19;;;;;;;;;47.25;33.50;;;;;0.72;70.31;101997.56;5037573;28;46184;-52
2021/12/22 05:19:45;;;;;;;;;41.00;33.25;;;;;0.69;70.28;101984.56;5037878;28;45251;-50
2021/12/22 05:22:10;;;;;;;;;39.25;33.50;;;;;0.59;69.54;101980.53;5037876;28;45342;-51
2021/12/22 05:24:35;;;;;;;;;38.50;32.50;;;;;0.59;70.25;101983.16;5037389;28;45521;-53
2021/12/22 05:27:01;;;;;;;;;48.00;41.50;;;;;0.61;70.48;101995.31;5037679;28;46302;-56
2021/12/22 05:29:26;;;;;;;;;48.25;33.00;;;;;0.56;70.52;101991.13;5037565;28;45407;-52
2021/12/22 05:31:54;;;;;;;;;28.50;23.00;;;;;0.58;69.97;101994.53;5037528;28;45328;-52
2021/12/22 05:34:20;;;;;;;;;36.00;28.00;;;;;0.47;70.35;101976.59;5037689;28;45319;-50
2021/12/22 05:36:46;;;;;;;;;42.50;34.25;;;;;0.60;70.72;101990.97;5036600;28;46136;-53
2021/12/22 05:39:11;;;;;;;;;48.25;32.00;;;;;0.62;70.42;101996.16;5037484;28;45298;-53
2021/12/22 05:41:36;;;;;;;;;47.50;31.50;;;;;0.63;69.90;102003.97;5037056;28;45436;-53
2021/12/22 05:44:02;;;;;;;;;40.00;27.75;;;;;0.54;69.67;101993.78;5037497;28;45311;-51
2021/12/22 05:46:27;;;;;;;;;29.50;20.00;;;;;0.59;69.51;101999.75;5037271;28;46000;-54
2021/12/22 05:48:53;;;;;;;;;41.50;30.50;;;;;0.53;70.80;102001.72;5037248;28;45279;-49
2021/12/22 05:51:18;;;;;;;;;34.00;26.75;;;;;0.53;70.30;102009.56;5036239;28;45477;-51
2021/12/22 05:53:44;;;;;;;;;39.75;32.75;;;;;0.55;70.00;102005.13;5037371;28;45285;-50
2021/12/22 05:56:12;;;;;;;;;45.00;34.50;;;;;0.52;70.57;102006.09;5037139;28;47218;-53
2021/12/22 05:58:37;;;;;;;;;40.00;35.00;;;;;0.50;70.58;102005.28;5036957;28;45322;-52
2021/12/22 06:01:03;;;;;;;;;44.25;37.00;;;;;0.49;70.70;102007.03;5037190;28;45734;-49
2021/12/22 06:03:28;;;;;;;;;36.25;28.00;;;;;0.54;70.49;102014.72;5037437;28;45488;-52
2021/12/22 06:05:53;;;;;;;;;42.25;33.50;;;;;0.54;70.35;102014.72;5036904;28;46261;-52
2021/12/22 06:08:19;;;;;;;;;49.50;35.00;;;;;0.54;70.70;102014.72;5037163;28;45547;-51
2021/12/22 06:10:44;;;;;;;;;34.25;29.50;;;;;0.50;70.55;102013.13;5037243;28;45358;-53
2021/12/22 06:13:11;;;;;;;;;46.50;36.00;;;;;0.57;70.52;102022.50;5036997;28;45321;-51
2021/12/22 06:15:38;;;;;;;;;48.00;33.50;;;;;0.57;71.02;102019.88;5037044;28;45359;-52
2021/12/22 06:18:04;;;;;;;;;53.00;36.75;;;;;0.47;70.46;101994.94;5036897;28;45462;-49
2021/12/22 06:20:31;;;;;;;;;34.50;26.75;;;;;0.63;70.44;102003.09;5037129;28;45211;-52
2021/12/22 06:22:57;;;;;;;;;39.75;32.50;;;;;0.51;69.81;101980.81;5037121;28;45416;-52
2021/12/22 06:25:23;;;;;;;;;43.50;30.50;;;;;0.66;70.31;102001.22;5036578;28;45706;-51
2021/12/22 06:27:49;;;;;;;;;50.75;39.75;;;;;0.67;70.67;102004.69;5036603;28;45341;-52
2021/12/22 06:30:15;;;;;;;;;41.00;30.00;;;;;0.58;70.69;102002.41;5037143;28;45336;-51
2021/12/22 06:32:40;;;;;;;;;36.00;27.75;;;;;0.53;70.57;102009.56;5037129;28;45439;-51
2021/12/22 06:35:06;;;;;;;;;43.00;35.75;;;;;0.45;70.87;102008.03;5018879;28;45998;-51
2021/12/22 06:37:32;;;;;;;;;53.00;42.75;;;;;0.46;72.14;102007.16;5018780;28;45343;-52
2021/12/22 06:39:58;;;;;;;;;53.00;42.25;;;;;0.42;71.57;102008.16;5036999;28;45247;-52
2021/12/22 06:42:23;;;;;;;;;37.25;25.00;;;;;0.29;70.94;101995.50;5036736;28;45460;-52
2021/12/22 06:44:49;;;;;;;;;36.25;26.25;;;;;0.35;70.36;102011.03;5036486;28;46138;-51
2021/12/22 06:47:15;;;;;;;;;52.00;33.00;;;;;0.29;70.41;102008.59;5036658;28;45237;-50
2021/12/22 06:49:40;;;;;;;;;34.25;24.50;;;;;0.22;70.72;102014.03;5038205;28;45298;-51
2021/12/22 06:52:06;;;;;;;;;50.00;32.25;;;;;0.23;70.31;102014.91;5040563;28;45346;-54
2021/12/22 06:54:32;;;;;;;;;43.00;32.00;;;;;0.14;71.44;102020.44;5039927;28;46066;-54
2021/12/22 06:56:57;;;;;;;;;49.50;34.50;;;;;0.13;71.26;102035.28;5040148;28;45501;-52
2021/12/22 06:59:23;;;;;;;;;38.75;21.00;;;;;0.08;71.59;102031.06;5039617;28;45386;-52
2021/12/22 07:01:50;;;;;;;;;45.00;31.00;;;;;-0.06;71.60;102005.34;5040205;28;45376;-51
2021/12/22 07:04:15;;;;;;;;;41.25;31.00;;;;;0.07;71.00;102025.00;5039885;28;47159;-53
2021/12/22 07:06:41;;;;;;;;;52.75;37.00;;;;;0.11;71.61;102020.50;5039893;28;45396;-52
2021/12/22 07:09:07;;;;;;;;;57.50;42.00;;;;;0.15;71.27;102028.22;5040010;28;45483;-49
2021/12/22 07:11:37;;;;;;;;;37.50;31.00;;;;;0.10;71.39;102022.28;5040054;28;45303;-52
2021/12/22 07:14:04;;;;;;;;;42.25;33.50;;;;;0.19;71.72;102023.75;5039531;28;45417;-52
2021/12/22 07:16:30;;;;;;;;;69.75;45.00;;;;;0.22;71.38;102019.28;5026450;28;45455;-53
2021/12/22 07:18:56;;;;;;;;;59.50;47.00;;;;;0.18;71.19;102007.19;5039841;28;45410;-53
2021/12/22 07:21:22;;;;;;;;;44.75;36.75;;;;;0.23;71.13;102004.44;5039897;28;45417;-52
2021/12/22 07:23:48;;;;;;;;;44.75;30.50;;;;;0.28;70.99;102006.91;5039619;28;46523;-52
2021/12/22 07:26:14;;;;;;;;;45.25;34.50;;;;;0.27;71.21;102015.66;5039391;28;45530;-51
2021/12/22 07:28:48;;;;;;;;;53.50;33.00;;;;;0.23;71.33;102015.75;5039415;28;45274;-53
2021/12/22 07:31:15;;;;;;;;;50.75;32.25;;;;;0.26;71.00;102017.44;5039699;28;45385;-55
2021/12/22 07:34:05;;;;;;;;;39.75;30.50;;;;;0.26;71.04;102019.19;5039293;28;45344;-51
2021/12/22 07:36:30;;;;;;;;;54.50;43.25;;;;;0.22;71.12;102014.03;5039300;28;45384;-51
2021/12/22 07:39:01;;;;;;;;;37.25;21.75;;;;;0.22;70.18;102019.28;5039684;28;45453;-53
2021/12/22 07:41:28;;;;;;;;;55.50;31.75;;;;;0.22;71.50;102021.91;5039569;28;45429;-52
2021/12/22 07:43:54;;;;;;;;;41.00;31.50;;;;;0.22;71.34;102016.66;5039043;28;46396;-49
2021/12/22 07:46:20;;;;;;;;;40.75;24.75;;;;;0.24;70.80;102006.97;5039578;28;45387;-52
2021/12/22 07:48:46;;;;;;;;;52.00;43.25;;;;;0.24;70.89;102006.97;5039152;28;45405;-52
2021/12/22 07:51:11;;;;;;;;;52.00;37.25;;;;;0.30;70.72;102016.41;5039381;28;45272;-52
2021/12/22 07:53:37;;;;;;;;;45.75;36.75;;;;;0.34;70.94;102019.75;5038968;28;45381;-49
2021/12/22 07:56:02;;;;;;;;;46.50;33.00;;;;;0.36;70.53;102017.97;5039124;28;45686;-52
2021/12/22 07:58:28;;;;;;;;;51.50;37.50;;;;;0.36;70.67;102021.44;5039050;28;45218;-53
2021/12/22 08:00:55;;;;;;;;;45.25;35.50;;;;;0.32;71.04;102019.81;5037455;28;45370;-52
2021/12/22 08:03:21;;;;;;;;;51.25;38.50;;;;;0.35;70.96;102024.97;5038796;28;45302;-53
2021/12/22 08:05:47;;;;;;;;;47.75;34.50;;;;;0.36;70.86;102016.22;5038963;28;45331;-52
2021/12/22 08:08:12;;;;;;;;;60.75;43.00;;;;;0.38;71.29;102021.38;5037906;28;45421;-49
2021/12/22 08:10:37;;;;;;;;;45.50;35.50;;;;;0.36;71.12;102031.06;5039062;28;45291;-51
2021/12/22 08:13:03;;;;;;;;;37.50;31.00;;;;;0.41;71.12;102034.38;5038743;28;46117;-51
2021/12/22 08:15:28;;;;;;;;;51.50;34.00;;;;;0.43;70.58;102035.19;5038367;28;45333;-52
2021/12/22 08:17:54;;;;;;;;;53.00;40.00;;;;;0.48;71.12;102038.53;5038444;28;45410;-51
2021/12/22 08:20:20;;;;;;;;;41.50;31.50;;;;;0.52;70.57;102034.03;5038168;28;45472;-48
2021/12/22 08:22:46;;;;;;;;;49.75;40.00;;;;;0.51;70.42;102014.84;5037994;28;45404;-49
2021/12/22 08:25:12;;;;;;;;;38.75;31.25;;;;;0.47;70.78;102010.63;5038197;28;45455;-51
2021/12/22 08:27:38;;;;;;;;;54.50;43.00;;;;;0.46;71.05;102015.03;5038324;28;45199;-51
2021/12/22 08:30:05;;;;;;;;;49.00;38.50;;;;;0.50;70.59;102003.50;5038428;28;45522;-51
2021/12/22 08:32:31;;;;;;;;;55.25;38.25;;;;;0.56;70.66;102002.47;5037973;28;46195;-51
2021/12/22 08:34:56;;;;;;;;;46.50;33.00;;;;;0.60;70.73;102008.47;5020387;28;46145;-52
2021/12/22 08:40:11;;;;;;;;;61.00;47.25;;;;;0.49;71.21;102008.81;5038177;28;45384;-51
2021/12/22 08:42:37;;;;;;;;;51.25;32.00;;;;;0.45;71.31;102015.03;5037824;28;46237;-52
2021/12/22 08:45:04;;;;;;;;;47.25;37.25;;;;;0.46;71.73;102009.78;5037675;28;45350;-53
2021/12/22 08:47:30;;;;;;;;;47.75;36.00;;;;;0.53;71.20;102004.31;5037834;28;45350;-49
2021/12/22 08:49:55;;;;;;;;;28.00;21.00;;;;;0.57;70.26;102009.41;5038264;28;45240;-50
2021/12/22 08:52:21;;;;;;;;;29.25;17.75;;;;;0.63;70.23;102010.94;5037596;28;46548;-50
2021/12/22 08:54:46;;;;;;;;;38.25;33.25;;;;;0.64;70.49;102012.69;5037846;28;45284;-52
2021/12/22 08:57:12;;;;;;;;;32.25;27.50;;;;;0.66;70.45;102000.38;5038074;28;45461;-53
2021/12/22 08:59:37;;;;;;;;;39.00;33.00;;;;;0.65;70.02;101996.91;5038035;28;45338;-49
2021/12/22 09:02:03;;;;;;;;;35.00;27.25;;;;;0.63;70.22;101993.50;5038065;28;45450;-49
2021/12/22 09:04:29;;;;;;;;;40.25;29.75;;;;;0.53;70.19;101967.66;5021739;28;45366;-49
2021/12/22 09:06:55;;;;;;;;;55.75;39.25;;;;;0.58;70.62;101991.94;5040374;28;45421;-50
2021/12/22 09:09:21;;;;;;;;;46.00;39.25;;;;;0.51;71.04;101986.06;5037881;28;45478;-49
2021/12/22 09:11:48;;;;;;;;;48.75;34.00;;;;;0.51;70.81;101988.69;5036347;28;47233;-51
2021/12/22 09:14:16;;;;;;;;;63.50;39.75;;;;;0.51;70.84;101996.53;5040192;28;45357;-53
2021/12/22 09:16:42;;;;;;;;;40.75;30.75;;;;;0.56;71.04;101993.75;5040668;28;45402;-49
2021/12/22 09:19:08;;;;;;;;;42.50;35.00;;;;;0.59;70.18;101996.25;5041049;28;45367;-54
2021/12/22 09:21:34;;;;;;;;;62.50;45.00;;;;;0.62;70.86;101988.28;5039294;28;47583;-52
2021/12/22 09:23:59;;;;;;;;;56.50;33.50;;;;;0.61;70.51;101991.84;5037534;28;45519;-51
2021/12/22 09:26:25;;;;;;;;;48.25;36.00;;;;;0.72;69.97;101993.19;5037447;28;45382;-52
2021/12/22 09:28:52;;;;;;;;;51.00;38.25;;;;;0.75;69.76;101992.19;5037480;28;45389;-54
2021/12/22 09:31:18;;;;;;;;;39.75;34.00;;;;;0.79;70.23;101990.34;5036739;28;45257;-52
2021/12/22 09:33:44;;;;;;;;;39.00;29.75;;;;;0.83;69.80;101997.19;5037359;28;45264;-51
2021/12/22 09:36:12;;;;;;;;;45.50;29.50;;;;;0.75;69.85;101993.06;5037451;28;45350;-51
2021/12/22 09:38:38;;;;;;;;;63.75;37.50;;;;;0.73;69.83;101983.56;5037563;28;45451;-49
2021/12/22 09:41:05;;;;;;;;;36.75;31.00;;;;;0.73;69.82;101986.19;5036589;28;46068;-49
2021/12/22 09:43:30;;;;;;;;;45.50;33.75;;;;;0.71;70.41;101998.44;5036898;28;45371;-49
2021/12/22 09:46:01;;;;;;;;;44.75;33.00;;;;;0.68;70.26;101991.56;5036949;28;45508;-51
2021/12/22 09:49:20;;;;;;;;;56.00;37.50;;;;;0.70;70.09;102002.00;5037401;28;45330;-50
2021/12/22 09:53:47;;;;;;;;;51.00;36.25;;;;;0.78;70.24;101996.50;5036879;28;45317;-52
2021/12/22 09:56:15;;;;;;;;;59.00;36.00;;;;;0.81;69.63;102005.09;5037068;28;45515;-50
2021/12/22 09:58:43;;;;;;;;;39.75;30.50;;;;;0.90;70.21;102006.53;5037010;28;45404;-50
2021/12/22 10:01:10;;;;;;;;;70.50;47.50;;;;;0.94;70.17;102009.00;5036356;28;45996;-53
2021/12/22 10:03:35;;;;;;;;;60.00;40.00;;;;;0.81;69.88;101993.78;5036800;28;45380;-51
2021/12/22 10:06:01;;;;;;;;;41.00;35.00;;;;;0.97;69.79;102010.66;5018925;28;45217;-53
2021/12/22 10:08:28;;;;;;;;;58.25;43.50;;;;;1.06;70.19;102005.09;5037038;28;45251;-54
2021/12/22 10:11:20;;;;;;;;;62.50;42.75;;;;;1.11;68.81;102003.16;5036646;28;45481;-50
2021/12/22 10:13:46;;;;;;;;;57.25;40.50;;;;;1.15;69.73;101996.91;5032038;28;45319;-50
2021/12/22 10:16:21;;;;;;;;;35.50;25.25;;;;;1.22;68.94;101997.50;5020469;28;45441;-52
2021/12/22 10:19:02;;;;;;;;;64.50;49.25;;;;;1.15;68.46;101996.91;5036684;28;45350;-50
2021/12/22 10:21:28;;;;;;;;;46.00;33.00;;;;;1.19;68.89;101992.41;5036048;28;47076;-48
2021/12/22 10:23:55;;;;;;;;;32.00;24.75;;;;;1.17;68.68;102008.16;5036082;28;45265;-51
2021/12/22 10:26:23;;;;;;;;;55.50;37.75;;;;;1.18;68.57;101996.78;5036607;28;45518;-52
2021/12/22 10:28:56;;;;;;;;;54.25;41.50;;;;;1.17;68.56;102005.53;5037137;28;45300;-50
2021/12/22 10:31:32;;;;;;;;;54.25;44.50;;;;;1.21;68.80;102009.75;5035329;28;46180;-49
2021/12/22 10:33:58;;;;;;;;;61.00;48.00;;;;;1.29;68.47;101999.00;5036434;28;45456;-48
2021/12/22 10:36:23;;;;;;;;;59.75;46.75;;;;;1.30;68.29;101997.25;5036942;28;45337;-52
2021/12/22 10:38:53;;;;;;;;;54.25;41.75;;;;;1.28;68.99;101997.31;5037032;28;45455;-51
2021/12/22 10:41:21;;;;;;;;;48.50;32.50;;;;;1.36;68.12;102002.28;5036508;28;46967;-50
2021/12/22 10:43:49;;;;;;;;;59.00;43.75;;;;;1.41;68.41;101993.31;5036601;28;45235;-52
2021/12/22 10:46:32;;;;;;;;;55.75;36.50;;;;;1.40;68.30;101965.41;5036739;28;45463;-51
2021/12/22 10:49:20;;;;;;;;;55.75;40.75;;;;;1.41;68.26;101966.25;5036681;28;45471;-50
2021/12/22 10:51:55;;;;;;;;;58.75;42.75;;;;;1.46;67.81;101978.25;5036174;28;46275;-52
2021/12/22 10:54:35;;;;;;;;;30.50;19.50;;;;;1.44;68.00;101968.75;5036352;28;45376;-50
2021/12/22 10:57:03;;;;;;;;;63.00;40.50;;;;;1.46;68.08;101953.81;5036585;28;45365;-52
2021/12/22 10:59:45;;;;;;;;;67.75;46.75;;;;;1.39;68.16;101934.84;5036601;28;45524;-53
2021/12/22 11:02:11;;;;;;;;;60.00;42.75;;;;;1.45;67.51;101936.38;5036034;28;47108;-55
2021/12/22 11:04:43;;;;;;;;;61.00;38.25;;;;;1.47;67.84;101939.78;5036286;28;45242;-53
2021/12/22 11:07:23;;;;;;;;;67.25;47.00;;;;;1.48;67.66;101936.25;5036514;28;45541;-51
2021/12/22 11:09:50;;;;;;;;;64.50;43.00;;;;;1.49;68.10;101936.19;5036766;28;45385;-53
2021/12/22 11:12:17;;;;;;;;;54.50;40.00;;;;;1.50;68.00;101927.41;5036004;28;45554;-51
2021/12/22 11:14:47;;;;;;;;;78.50;53.00;;;;;1.42;67.67;101918.13;5036232;28;45331;-52
2021/12/22 11:17:19;;;;;;;;;69.25;49.00;;;;;1.55;68.00;101934.25;5036124;28;45389;-50
2021/12/22 11:19:50;;;;;;;;;69.00;50.75;;;;;1.65;67.24;101933.84;5036596;28;45568;-52
2021/12/22 11:22:18;;;;;;;;;37.25;22.50;;;;;1.57;67.50;101920.16;5036046;28;47033;-53
2021/12/22 11:24:50;;;;;;;;;52.50;45.75;;;;;1.63;66.55;101927.78;5036247;28;45389;-51
2021/12/22 11:27:22;;;;;;;;;58.00;48.25;;;;;1.66;67.40;101932.91;5036224;28;45408;-49
2021/12/22 11:29:54;;;;;;;;;47.50;34.00;;;;;1.60;67.22;101922.69;5036291;28;45406;-52
2021/12/22 11:32:31;;;;;;;;;42.25;35.00;;;;;1.51;66.98;101912.53;5035876;28;46190;-50
2021/12/22 11:35:03;;;;;;;;;38.00;33.50;;;;;1.56;67.40;101912.34;5036728;28;45272;-53